createdAt,value
2018-02-16T00:02:07.310Z,19.92
2018-02-16T00:04:34.722Z,19.94
2018-02-16T00:07:02.098Z,19.98
2018-02-16T00:09:29.479Z,19.64
2018-02-16T00:11:56.871Z,19.85
2018-02-16T00:14:24.240Z,19.75
2018-02-16T00:16:51.634Z,19.96
2018-02-16T00:19:19.091Z,19.59
2018-02-16T00:21:46.579Z,19.65
2018-02-16T00:24:14.021Z,19.69
2018-02-16T00:26:41.430Z,19.89
2018-02-16T00:29:08.831Z,19.48
2018-02-16T00:31:36.245Z,19.80
2018-02-16T00:34:03.619Z,19.69
2018-02-16T00:36:31.024Z,19.75
2018-02-16T00:38:58.595Z,19.90
2018-02-16T00:41:25.964Z,19.78
2018-02-16T00:43:53.324Z,19.62
2018-02-16T00:46:20.820Z,19.76
2018-02-16T00:48:48.269Z,19.67
2018-02-16T00:51:15.779Z,19.63
2018-02-16T00:53:43.162Z,19.87
2018-02-16T00:56:10.844Z,19.74
2018-02-16T00:58:38.237Z,19.79
2018-02-16T01:01:05.640Z,19.81
2018-02-16T01:03:33.211Z,19.63
2018-02-16T01:06:00.569Z,19.91
2018-02-16T01:08:27.932Z,19.53
2018-02-16T01:10:55.315Z,19.82
2018-02-16T01:13:22.883Z,19.81
2018-02-16T01:15:50.295Z,19.71
2018-02-16T01:18:17.664Z,19.63
2018-02-16T01:20:45.250Z,19.69
2018-02-16T01:23:12.609Z,19.49
2018-02-16T01:25:40.019Z,19.43
2018-02-16T01:28:07.461Z,19.57
2018-02-16T01:30:34.820Z,19.74
2018-02-16T01:33:02.224Z,19.71
2018-02-16T01:35:29.616Z,19.74
2018-02-16T01:37:56.986Z,19.58
2018-02-16T01:40:24.406Z,19.75
2018-02-16T01:42:52.012Z,19.63
2018-02-16T01:45:19.547Z,19.71
2018-02-16T01:47:46.910Z,19.51
2018-02-16T01:50:14.295Z,19.48
2018-02-16T01:52:41.765Z,19.67
2018-02-16T01:55:09.190Z,19.39
2018-02-16T01:57:36.685Z,19.66
2018-02-16T02:00:04.156Z,19.59
2018-02-16T02:02:34.374Z,19.99
2018-02-16T02:05:01.737Z,19.69
2018-02-16T02:07:29.104Z,19.41
2018-02-16T02:09:56.474Z,19.71
2018-02-16T02:12:23.839Z,19.59
2018-02-16T02:14:51.204Z,19.42
2018-02-16T02:17:18.862Z,19.11
2018-02-16T02:19:46.303Z,19.42
2018-02-16T02:22:13.659Z,19.55
2018-02-16T02:24:41.008Z,19.32
2018-02-16T02:27:08.457Z,19.62
2018-02-16T02:29:35.839Z,19.66
2018-02-16T02:32:03.202Z,19.16
2018-02-16T02:34:30.612Z,19.71
2018-02-16T02:36:57.952Z,19.62
2018-02-16T02:39:25.540Z,19.66
2018-02-16T02:41:53.029Z,19.75
2018-02-16T02:44:20.423Z,19.68
2018-02-16T02:46:47.796Z,19.89
2018-02-16T02:49:15.164Z,19.84
2018-02-16T02:51:42.569Z,19.89
2018-02-16T02:54:10.184Z,19.66
2018-02-16T02:56:37.709Z,20.03
2018-02-16T02:59:05.140Z,19.95
2018-02-16T03:01:32.495Z,20.03
2018-02-16T03:03:59.860Z,19.62
2018-02-16T03:06:27.215Z,20.08
2018-02-16T03:08:54.726Z,19.80
2018-02-16T03:11:22.118Z,20.05
2018-02-16T03:13:49.687Z,20.05
2018-02-16T03:16:17.347Z,19.81
2018-02-16T03:18:44.828Z,20.09
2018-02-16T03:21:12.258Z,20.11
2018-02-16T03:23:39.687Z,20.15
2018-02-16T03:26:07.048Z,19.96
2018-02-16T03:28:34.467Z,20.16
2018-02-16T03:31:01.870Z,20.26
2018-02-16T03:33:29.419Z,20.10
2018-02-16T03:35:56.782Z,20.12
2018-02-16T03:38:24.243Z,20.27
2018-02-16T03:40:51.678Z,20.18
2018-02-16T03:43:19.039Z,20.24
2018-02-16T03:45:46.602Z,19.97
2018-02-16T03:48:14.063Z,20.16
2018-02-16T03:50:41.479Z,20.30
2018-02-16T03:53:08.906Z,20.19
2018-02-16T03:55:36.318Z,20.09
2018-02-16T03:58:03.731Z,20.04
2018-02-16T04:00:31.319Z,19.78
2018-02-16T04:02:58.776Z,20.14
2018-02-16T04:05:26.151Z,20.22
2018-02-16T04:07:53.520Z,20.18
2018-02-16T04:10:20.921Z,20.04
2018-02-16T04:12:48.284Z,20.03
2018-02-16T04:15:15.636Z,20.17
2018-02-16T04:17:43.002Z,20.20
2018-02-16T04:20:10.422Z,20.30
2018-02-16T04:22:37.774Z,19.96
2018-02-16T04:25:05.214Z,20.26
2018-02-16T04:27:32.586Z,20.55
2018-02-16T04:30:00.175Z,19.72
2018-02-16T04:32:27.535Z,20.34
2018-02-16T04:34:54.922Z,20.47
2018-02-16T04:37:22.282Z,20.47
2018-02-16T04:39:49.746Z,20.53
2018-02-16T04:42:17.114Z,20.40
2018-02-16T04:44:44.678Z,20.49
2018-02-16T04:47:12.089Z,20.59
2018-02-16T04:49:39.486Z,20.44
2018-02-16T04:52:06.902Z,20.21
2018-02-16T04:54:34.344Z,20.64
2018-02-16T04:57:01.706Z,20.72
2018-02-16T04:59:29.097Z,20.65
2018-02-16T05:01:56.691Z,20.74
2018-02-16T05:06:57.296Z,19.41
2018-02-16T05:09:26.127Z,20.60
2018-02-16T05:11:53.538Z,20.72
2018-02-16T05:14:20.882Z,20.80
2018-02-16T05:16:48.312Z,20.88
2018-02-16T05:19:15.684Z,20.75
2018-02-16T05:21:43.186Z,20.90
2018-02-16T05:24:10.603Z,20.62
2018-02-16T05:26:38.233Z,20.80
2018-02-16T05:29:05.674Z,20.97
2018-02-16T05:31:33.039Z,20.69
2018-02-16T05:34:00.557Z,20.82
2018-02-16T05:36:28.497Z,21.03
2018-02-16T05:38:55.860Z,20.96
2018-02-16T05:41:23.238Z,20.85
2018-02-16T05:43:50.622Z,21.01
2018-02-16T05:46:18.302Z,21.05
2018-02-16T05:48:45.751Z,21.03
2018-02-16T05:51:13.113Z,21.01
2018-02-16T05:53:40.558Z,20.48
2018-02-16T05:56:07.996Z,20.34
2018-02-16T05:58:35.367Z,20.61
2018-02-16T06:01:02.783Z,20.96
2018-02-16T06:03:30.192Z,21.27
2018-02-16T06:05:57.584Z,21.33
2018-02-16T06:08:26.609Z,21.17
2018-02-16T06:10:53.981Z,21.13
2018-02-16T06:13:21.399Z,21.55
2018-02-16T06:15:49.054Z,21.19
2018-02-16T06:18:16.462Z,21.12
2018-02-16T06:20:43.837Z,21.24
2018-02-16T06:23:11.302Z,20.98
2018-02-16T06:25:38.787Z,21.39
2018-02-16T06:28:06.600Z,21.05
2018-02-16T06:30:34.053Z,21.35
2018-02-16T06:33:01.556Z,21.34
2018-02-16T06:35:29.054Z,21.53
2018-02-16T06:37:56.484Z,21.38
2018-02-16T06:40:23.857Z,20.89
2018-02-16T06:42:51.293Z,21.31
2018-02-16T06:45:18.724Z,21.41
2018-02-16T06:47:46.916Z,21.60
2018-02-16T06:50:14.599Z,21.32
2018-02-16T06:52:42.012Z,21.49
2018-02-16T06:55:09.626Z,21.48
2018-02-16T06:57:37.151Z,21.72
2018-02-16T07:00:04.754Z,21.42
2018-02-16T07:02:32.185Z,21.78
2018-02-16T07:04:59.752Z,21.64
2018-02-16T07:07:27.289Z,21.75
2018-02-16T07:09:54.699Z,21.67
2018-02-16T07:12:22.375Z,21.72
2018-02-16T07:14:51.669Z,21.63
2018-02-16T07:17:19.372Z,21.88
2018-02-16T07:19:46.840Z,21.40
2018-02-16T07:22:14.624Z,21.89
2018-02-16T07:24:42.289Z,21.38
2018-02-16T07:27:09.680Z,21.91
2018-02-16T07:29:45.223Z,21.81
2018-02-16T07:32:13.070Z,21.70
2018-02-16T07:34:40.511Z,22.09
2018-02-16T07:37:07.909Z,22.13
2018-02-16T07:39:35.339Z,22.56
2018-02-16T07:42:02.899Z,22.21
2018-02-16T07:44:30.532Z,22.38
2018-02-16T07:46:59.266Z,22.52
2018-02-16T07:49:26.909Z,22.38
2018-02-16T07:51:54.492Z,22.19
2018-02-16T07:54:21.947Z,22.08
2018-02-16T07:56:53.033Z,22.39
2018-02-16T07:59:21.092Z,22.10
2018-02-16T08:01:48.840Z,22.33
2018-02-16T08:04:21.706Z,22.42
2018-02-16T08:06:52.076Z,22.46
2018-02-16T08:09:20.063Z,22.20
2018-02-16T08:11:47.593Z,22.84
2018-02-16T08:14:15.329Z,22.48
2018-02-16T08:16:42.727Z,22.09
2018-02-16T08:19:10.211Z,21.66
2018-02-16T08:21:37.692Z,22.71
2018-02-16T08:24:05.141Z,22.63
2018-02-16T08:26:32.558Z,22.99
2018-02-16T08:29:00.024Z,22.64
2018-02-16T08:31:27.424Z,23.14
2018-02-16T08:33:54.819Z,23.19
2018-02-16T08:36:22.426Z,22.49
2018-02-16T08:39:02.655Z,22.51
2018-02-16T08:41:30.128Z,22.82
2018-02-16T08:43:57.666Z,23.17
2018-02-16T08:46:26.414Z,22.86
2018-02-16T08:48:54.232Z,23.08
2018-02-16T08:51:21.945Z,22.86
2018-02-16T08:53:49.646Z,22.99
2018-02-16T09:01:42.554Z,22.86
2018-02-16T09:04:10.544Z,22.65
2018-02-16T09:06:39.582Z,23.03
2018-02-16T09:09:07.189Z,23.51
2018-02-16T09:11:38.154Z,22.76
2018-02-16T09:14:06.755Z,23.36
2018-02-16T09:16:34.427Z,23.03
2018-02-16T09:19:01.931Z,23.35
2018-02-16T09:21:29.423Z,22.75
2018-02-16T09:23:56.846Z,23.31
2018-02-16T09:26:24.784Z,23.28
2018-02-16T09:28:52.211Z,23.40
2018-02-16T09:31:19.626Z,22.99
2018-02-16T09:33:47.215Z,22.97
2018-02-16T09:36:14.707Z,22.95
2018-02-16T09:38:42.160Z,23.44
2018-02-16T09:41:09.597Z,23.24
2018-02-16T09:43:37.035Z,23.31
2018-02-16T09:46:04.430Z,23.27
2018-02-16T09:48:31.814Z,22.71
2018-02-16T09:50:59.275Z,23.33
2018-02-16T09:53:26.736Z,22.89
2018-02-16T09:55:54.184Z,22.96
2018-02-16T09:58:21.653Z,23.40
2018-02-16T10:00:49.172Z,23.30
2018-02-16T10:03:16.642Z,23.32
2018-02-16T10:05:44.034Z,23.34
2018-02-16T10:08:11.402Z,23.56
2018-02-16T10:10:38.782Z,23.44
2018-02-16T10:13:06.223Z,23.54
2018-02-16T10:15:33.655Z,23.49
2018-02-16T10:18:01.038Z,23.48
2018-02-16T10:20:28.402Z,23.02
2018-02-16T10:22:55.834Z,23.01
2018-02-16T10:25:23.292Z,23.54
2018-02-16T10:27:50.677Z,23.70
2018-02-16T10:30:18.185Z,23.58
2018-02-16T10:32:45.603Z,23.67
2018-02-16T10:35:13.188Z,23.46
2018-02-16T10:37:40.567Z,22.75
2018-02-16T10:40:07.983Z,23.42
2018-02-16T10:42:35.413Z,23.61
2018-02-16T10:45:02.917Z,23.11
2018-02-16T10:47:30.586Z,23.03
2018-02-16T10:49:58.173Z,23.83
2018-02-16T10:52:25.589Z,23.28
2018-02-16T10:54:52.995Z,23.33
2018-02-16T10:57:20.381Z,23.07
2018-02-16T10:59:47.850Z,23.44
2018-02-16T11:02:15.291Z,23.88
2018-02-16T11:04:42.733Z,24.00
2018-02-16T11:07:10.147Z,23.51
2018-02-16T11:09:37.598Z,23.75
2018-02-16T11:12:05.051Z,23.65
2018-02-16T11:14:32.463Z,23.59
2018-02-16T11:16:59.905Z,23.41
2018-02-16T11:19:27.360Z,23.74
2018-02-16T11:21:54.734Z,23.76
2018-02-16T11:24:22.156Z,23.66
2018-02-16T11:26:49.575Z,23.57
2018-02-16T11:29:17.047Z,23.69
2018-02-16T11:31:44.794Z,23.78
2018-02-16T11:34:13.370Z,23.47
2018-02-16T11:36:40.879Z,23.63
2018-02-16T11:39:09.969Z,24.09
2018-02-16T11:41:37.531Z,24.06
2018-02-16T11:44:05.576Z,23.86
2018-02-16T11:46:33.065Z,23.96
2018-02-16T11:49:00.580Z,23.99
2018-02-16T11:51:28.144Z,23.98
2018-02-16T11:53:55.738Z,23.98
2018-02-16T11:56:23.361Z,24.44
2018-02-16T11:58:51.729Z,24.25
2018-02-16T12:01:19.675Z,24.15
2018-02-16T12:03:47.158Z,24.40
2018-02-16T12:06:16.116Z,23.91
2018-02-16T12:08:43.577Z,24.34
2018-02-16T12:11:11.092Z,24.25
2018-02-16T12:18:48.384Z,24.19
2018-02-16T12:21:16.237Z,24.16
2018-02-16T12:23:43.795Z,24.05
2018-02-16T12:26:11.378Z,24.10
2018-02-16T12:28:39.002Z,24.06
2018-02-16T12:31:06.440Z,24.23
2018-02-16T12:33:33.924Z,24.35
2018-02-16T12:36:02.256Z,23.97
2018-02-16T12:38:29.914Z,24.15
2018-02-16T12:40:57.701Z,24.38
2018-02-16T12:43:25.387Z,24.14
2018-02-16T12:45:52.956Z,24.31
2018-02-16T12:48:20.415Z,23.81
2018-02-16T12:50:47.876Z,24.31
2018-02-16T12:53:15.841Z,24.45
2018-02-16T12:55:44.839Z,24.11
2018-02-16T12:58:12.359Z,24.09
2018-02-16T13:00:40.011Z,24.63
2018-02-16T13:03:07.467Z,24.54
2018-02-16T13:05:35.266Z,23.80
2018-02-16T13:08:02.803Z,24.32
2018-02-16T13:10:30.195Z,23.65
2018-02-16T13:12:59.468Z,23.65
2018-02-16T13:15:28.227Z,24.42
2018-02-16T13:17:56.221Z,24.33
2018-02-16T13:20:25.334Z,24.17
2018-02-16T13:22:54.380Z,23.87
2018-02-16T13:25:22.260Z,23.85
2018-02-16T13:27:50.055Z,24.09
2018-02-16T13:30:17.557Z,24.14
2018-02-16T13:32:45.309Z,24.27
